Time;durP1;ratioP1;P1;durP2;ratioP2;P2;SDS_P1;SDS_P2;PMS_P1;PMS_P2;Temp;Humidity;BMP_temperature;BMP_pressure;BME280_temperature;BME280_humidity;BME280_pressure;Samples;Min_cycle;Max_cycle;Signal;HPM_P1;HPM_P2
2021/09/30 00:00:06;;;;;;;4.70;0.97;;;;;;;;;;4977407;28;20556;-68
2021/09/30 00:02:32;;;;;;;1.80;1.00;;;;;;;;;;4977432;28;20888;-68
2021/09/30 00:04:58;;;;;;;1.00;0.80;;;;;;;;;;4977439;28;20417;-68
2021/09/30 00:07:24;;;;;;;2.10;1.03;;;;;;;;;;4977495;28;20460;-71
2021/09/30 00:13:01;;;;;;;3.03;1.00;;;;;;;;;;4976965;28;20460;-68
2021/09/30 00:40:17;;;;;;;1.87;1.10;;;;;;;;;;4976560;28;21015;-69
2021/09/30 00:45:42;;;;;;;2.40;1.00;;;;;;;;;;4976718;28;20430;-69
2021/09/30 00:53:49;;;;;;;2.80;1.10;;;;;;;;;;4976597;28;20435;-69
2021/09/30 01:22:43;;;;;;;0.87;0.87;;;;;;;;;;4976058;28;20771;-70
2021/09/30 01:34:16;;;;;;;1.40;0.90;;;;;;;;;;4975742;28;20547;-67
2021/09/30 02:28:43;;;;;;;6.50;1.50;;;;;;;;;;4974973;28;20422;-67
2021/09/30 02:58:57;;;;;;;2.27;1.27;;;;;;;;;;4974253;28;20454;-67
2021/09/30 03:01:24;;;;;;;3.20;1.20;;;;;;;;;;4974108;28;20464;-68
2021/09/30 03:03:52;;;;;;;2.73;1.47;;;;;;;;;;4974393;28;20474;-68
2021/09/30 03:06:19;;;;;;;1.73;1.03;;;;;;;;;;4974121;28;20427;-68
2021/09/30 03:08:47;;;;;;;3.00;1.20;;;;;;;;;;4974071;28;20800;-68
2021/09/30 03:14:18;;;;;;;1.30;1.20;;;;;;;;;;4973930;28;20425;-68
2021/09/30 03:16:50;;;;;;;2.20;1.40;;;;;;;;;;4973874;28;20419;-68
2021/09/30 03:19:33;;;;;;;1.20;0.90;;;;;;;;;;4974160;28;20470;-69
2021/09/30 03:24:39;;;;;;;4.30;1.10;;;;;;;;;;4974317;28;20422;-68
2021/09/30 03:30:09;;;;;;;1.10;0.93;;;;;;;;;;4977891;28;20941;-67
2021/09/30 03:32:35;;;;;;;0.80;0.80;;;;;;;;;;4977966;28;20414;-68
2021/09/30 03:35:01;;;;;;;4.50;1.20;;;;;;;;;;4977858;28;20781;-69
2021/09/30 03:37:27;;;;;;;2.00;1.50;;;;;;;;;;4977569;28;20518;-68
2021/09/30 03:39:53;;;;;;;2.60;1.10;;;;;;;;;;4978072;28;20988;-69
2021/09/30 03:45:22;;;;;;;3.80;1.10;;;;;;;;;;4977654;28;20436;-69
2021/09/30 03:47:48;;;;;;;2.83;0.83;;;;;;;;;;4977632;28;20774;-69
2021/09/30 03:50:17;;;;;;;1.60;1.03;;;;;;;;;;4977569;28;20418;-69
2021/09/30 03:52:56;;;;;;;1.00;0.90;;;;;;;;;;4977592;28;20415;-68
2021/09/30 04:00:51;;;;;;;2.93;1.20;;;;;;;;;;4977358;28;20453;-68
2021/09/30 04:03:17;;;;;;;5.20;1.30;;;;;;;;;;4977241;28;20736;-68
2021/09/30 04:05:43;;;;;;;1.80;0.87;;;;;;;;;;4977280;28;20411;-68
2021/09/30 04:08:09;;;;;;;2.57;1.00;;;;;;;;;;4977056;28;20406;-68
2021/09/30 04:10:35;;;;;;;3.57;1.23;;;;;;;;;;4977343;28;20773;-67
2021/09/30 04:16:05;;;;;;;1.40;1.27;;;;;;;;;;4976928;28;20460;-68
2021/09/30 04:18:31;;;;;;;11.03;1.30;;;;;;;;;;4976740;28;20418;-70
2021/09/30 04:20:57;;;;;;;1.30;1.13;;;;;;;;;;4976759;28;20427;-67
2021/09/30 04:23:23;;;;;;;2.47;1.00;;;;;;;;;;4976873;28;20828;-68
2021/09/30 04:25:49;;;;;;;0.93;0.90;;;;;;;;;;4976756;28;20495;-68
2021/09/30 04:31:23;;;;;;;2.27;1.30;;;;;;;;;;4976588;28;20491;-68
2021/09/30 04:33:49;;;;;;;2.80;1.10;;;;;;;;;;4976593;28;20430;-68
2021/09/30 04:36:15;;;;;;;2.53;1.20;;;;;;;;;;4976609;28;20738;-68
2021/09/30 04:38:40;;;;;;;1.73;1.20;;;;;;;;;;4975940;28;20520;-68
2021/09/30 04:41:06;;;;;;;2.20;1.07;;;;;;;;;;4976115;28;20481;-69
2021/09/30 04:46:36;;;;;;;1.50;1.13;;;;;;;;;;4976490;28;20424;-69
2021/09/30 04:49:02;;;;;;;2.17;1.70;;;;;;;;;;4976630;28;20830;-68
2021/09/30 04:51:28;;;;;;;2.23;1.27;;;;;;;;;;4976521;28;20454;-66
2021/09/30 04:53:54;;;;;;;1.43;1.00;;;;;;;;;;4976782;28;20418;-68
2021/09/30 04:56:20;;;;;;;2.37;1.50;;;;;;;;;;4976079;28;20497;-68
2021/09/30 05:01:50;;;;;;;4.20;1.50;;;;;;;;;;4976097;28;20868;-68
2021/09/30 05:04:16;;;;;;;2.37;1.83;;;;;;;;;;4976376;28;20414;-69
2021/09/30 05:06:42;;;;;;;1.57;1.37;;;;;;;;;;4976332;28;20506;-68
2021/09/30 05:09:08;;;;;;;4.50;1.20;;;;;;;;;;4976286;28;20442;-68
2021/09/30 05:11:35;;;;;;;3.60;1.40;;;;;;;;;;4976219;28;20821;-68
2021/09/30 05:17:05;;;;;;;1.23;1.13;;;;;;;;;;4975515;28;20472;-69
2021/09/30 05:19:31;;;;;;;1.40;0.80;;;;;;;;;;4975826;28;20466;-69
2021/09/30 05:21:57;;;;;;;1.83;1.20;;;;;;;;;;4975972;28;20433;-68
2021/09/30 05:24:23;;;;;;;1.13;1.03;;;;;;;;;;4975934;28;20738;-68
2021/09/30 05:26:49;;;;;;;3.70;1.40;;;;;;;;;;4975680;28;20530;-68
2021/09/30 05:32:18;;;;;;;0.80;0.80;;;;;;;;;;4975808;28;20405;-68
2021/09/30 05:34:44;;;;;;;1.10;0.83;;;;;;;;;;4973079;28;20430;-68
2021/09/30 05:37:10;;;;;;;1.53;1.43;;;;;;;;;;4975521;28;20431;-68
2021/09/30 05:39:36;;;;;;;1.20;1.03;;;;;;;;;;4975790;28;20486;-69
2021/09/30 05:42:02;;;;;;;2.40;1.03;;;;;;;;;;4975189;28;20986;-70
2021/09/30 05:47:32;;;;;;;6.70;1.40;;;;;;;;;;4975423;28;20506;-68
2021/09/30 05:49:58;;;;;;;1.30;1.20;;;;;;;;;;4974595;28;20399;-67
2021/09/30 05:52:24;;;;;;;5.90;1.30;;;;;;;;;;4975397;28;20404;-69
2021/09/30 05:54:50;;;;;;;2.70;1.40;;;;;;;;;;4975400;28;20524;-68
2021/09/30 05:57:16;;;;;;;1.17;1.00;;;;;;;;;;4975056;28;20519;-67
2021/09/30 06:14:12;;;;;;;1.70;1.03;;;;;;;;;;4974733;28;20910;-68
2021/09/30 06:16:16;;;;;;;0.97;0.77;;;;;;;;;;4974019;28;20497;-69
2021/09/30 06:18:42;;;;;;;2.93;1.13;;;;;;;;;;4974583;28;20403;-69
2021/09/30 06:21:08;;;;;;;1.80;1.30;;;;;;;;;;4974661;28;20823;-68
2021/09/30 06:23:34;;;;;;;3.10;0.80;;;;;;;;;;4974794;28;20759;-69
2021/09/30 06:26:00;;;;;;;5.33;1.10;;;;;;;;;;4974335;28;20418;-67
2021/09/30 06:28:26;;;;;;;1.97;1.20;;;;;;;;;;4974321;28;20562;-69
2021/09/30 06:30:52;;;;;;;4.10;0.90;;;;;;;;;;4974347;28;20506;-68
2021/09/30 06:33:18;;;;;;;2.30;1.20;;;;;;;;;;4974360;28;20700;-67
2021/09/30 06:35:44;;;;;;;2.20;1.20;;;;;;;;;;4974635;28;20461;-67
2021/09/30 06:38:10;;;;;;;3.03;1.63;;;;;;;;;;4974291;28;20787;-68
2021/09/30 06:40:36;;;;;;;2.20;0.80;;;;;;;;;;4974153;28;20471;-68
2021/09/30 06:43:03;;;;;;;5.27;1.40;;;;;;;;;;4973695;28;20441;-68
2021/09/30 06:45:29;;;;;;;1.27;1.00;;;;;;;;;;4974236;28;20456;-69
2021/09/30 06:47:55;;;;;;;1.57;1.10;;;;;;;;;;4974338;28;20409;-68
2021/09/30 06:50:21;;;;;;;1.63;0.80;;;;;;;;;;4974261;28;20467;-67
2021/09/30 06:52:47;;;;;;;3.73;1.33;;;;;;;;;;4974160;28;20560;-69
2021/09/30 06:55:13;;;;;;;1.13;1.03;;;;;;;;;;4974111;28;20491;-69
2021/09/30 06:57:39;;;;;;;0.80;0.80;;;;;;;;;;4973937;28;20464;-68
2021/09/30 07:03:09;;;;;;;4.00;1.10;;;;;;;;;;4974101;28;20479;-68
2021/09/30 07:05:35;;;;;;;1.10;0.80;;;;;;;;;;4974233;28;20405;-69
2021/09/30 07:08:01;;;;;;;5.90;1.30;;;;;;;;;;4972832;28;20422;-68
2021/09/30 07:10:28;;;;;;;2.27;1.57;;;;;;;;;;4974425;28;20496;-68
2021/09/30 07:12:54;;;;;;;5.00;1.47;;;;;;;;;;4974204;28;20418;-67
2021/09/30 07:18:24;;;;;;;3.30;1.00;;;;;;;;;;4974006;28;20425;-68
2021/09/30 07:20:53;;;;;;;3.00;1.20;;;;;;;;;;4974312;28;20415;-69
2021/09/30 07:23:19;;;;;;;1.40;1.03;;;;;;;;;;4974032;28;20419;-68
2021/09/30 07:25:45;;;;;;;2.27;0.90;;;;;;;;;;4974035;28;20407;-68
2021/09/30 07:28:11;;;;;;;1.63;1.03;;;;;;;;;;4973858;28;20418;-69
2021/09/30 07:33:40;;;;;;;3.17;1.20;;;;;;;;;;4973837;28;20927;-68
2021/09/30 07:36:06;;;;;;;1.40;0.93;;;;;;;;;;4973917;28;20411;-68
2021/09/30 07:38:32;;;;;;;3.13;1.17;;;;;;;;;;4974112;28;20506;-68
2021/09/30 07:40:58;;;;;;;1.03;0.77;;;;;;;;;;4973510;28;20831;-68
2021/09/30 07:43:24;;;;;;;4.30;1.33;;;;;;;;;;4973823;28;20422;-68
2021/09/30 07:45:50;;;;;;;5.23;0.80;;;;;;;;;;4973916;28;20430;-68
2021/09/30 07:48:16;;;;;;;1.67;1.10;;;;;;;;;;4970975;28;20469;-68
2021/09/30 07:50:42;;;;;;;0.87;0.87;;;;;;;;;;4972281;28;20431;-68
2021/09/30 07:53:10;;;;;;;1.53;0.70;;;;;;;;;;4972520;28;20458;-68
2021/09/30 07:55:36;;;;;;;3.37;1.83;;;;;;;;;;4971912;28;20836;-68
2021/09/30 07:58:03;;;;;;;3.90;1.90;;;;;;;;;;4972337;28;20415;-67
2021/09/30 08:03:33;;;;;;;2.70;0.70;;;;;;;;;;4972292;28;20492;-68
2021/09/30 08:05:59;;;;;;;5.27;1.10;;;;;;;;;;4972363;28;20917;-68
2021/09/30 08:08:25;;;;;;;0.80;0.60;;;;;;;;;;4971942;28;20426;-67
2021/09/30 08:10:51;;;;;;;1.20;0.90;;;;;;;;;;4972237;28;20426;-68
2021/09/30 08:13:17;;;;;;;2.10;0.83;;;;;;;;;;4974333;28;20542;-68
2021/09/30 08:18:47;;;;;;;2.00;0.73;;;;;;;;;;4975605;28;20592;-67
2021/09/30 08:21:14;;;;;;;2.60;0.97;;;;;;;;;;4976035;28;20430;-68
2021/09/30 08:23:43;;;;;;;1.47;1.13;;;;;;;;;;4975888;28;20438;-67
2021/09/30 08:26:10;;;;;;;4.03;1.40;;;;;;;;;;4974516;28;20921;-68
2021/09/30 08:28:36;;;;;;;3.33;0.90;;;;;;;;;;4975755;28;20445;-69
2021/09/30 08:34:06;;;;;;;2.30;1.00;;;;;;;;;;4975977;28;20420;-69
2021/09/30 08:36:32;;;;;;;2.00;0.80;;;;;;;;;;4975822;28;20435;-70
2021/09/30 08:38:58;;;;;;;1.17;0.70;;;;;;;;;;4975563;28;20872;-68
2021/09/30 08:41:24;;;;;;;2.83;0.70;;;;;;;;;;4975896;28;20770;-68
2021/09/30 08:43:54;;;;;;;1.23;1.00;;;;;;;;;;4975503;28;20398;-67
2021/09/30 08:49:25;;;;;;;2.10;0.73;;;;;;;;;;4975444;28;20410;-67
2021/09/30 08:51:51;;;;;;;1.80;0.83;;;;;;;;;;4975517;28;20527;-67
2021/09/30 08:54:17;;;;;;;2.73;0.83;;;;;;;;;;4975353;28;20961;-67
2021/09/30 08:56:43;;;;;;;1.43;0.67;;;;;;;;;;4975310;28;20423;-67
2021/09/30 08:59:13;;;;;;;0.80;0.30;;;;;;;;;;4975470;28;20488;-67
2021/09/30 09:01:39;;;;;;;2.03;0.70;;;;;;;;;;4974659;28;20415;-68
2021/09/30 09:04:17;;;;;;;2.13;0.70;;;;;;;;;;4974972;28;20758;-68
2021/09/30 09:06:46;;;;;;;1.83;0.80;;;;;;;;;;4974581;28;20418;-68
2021/09/30 09:09:38;;;;;;;1.90;0.97;;;;;;;;;;4973996;28;20539;-67
2021/09/30 09:12:06;;;;;;;1.47;0.60;;;;;;;;;;4974385;28;20905;-67
2021/09/30 09:14:33;;;;;;;1.23;0.80;;;;;;;;;;4975267;28;20406;-68
2021/09/30 09:17:00;;;;;;;2.80;1.00;;;;;;;;;;4974747;28;20411;-67
2021/09/30 09:19:32;;;;;;;0.93;0.67;;;;;;;;;;4974699;28;20473;-68
2021/09/30 09:22:03;;;;;;;5.57;0.83;;;;;;;;;;4974579;28;20434;-68
2021/09/30 09:24:29;;;;;;;2.00;0.80;;;;;;;;;;4975136;28;20434;-68
2021/09/30 09:26:59;;;;;;;2.40;0.60;;;;;;;;;;4975012;28;20415;-68
2021/09/30 09:29:28;;;;;;;2.60;0.60;;;;;;;;;;4975454;28;20495;-70
2021/09/30 09:31:54;;;;;;;2.90;0.63;;;;;;;;;;4975925;28;20415;-67
2021/09/30 09:34:20;;;;;;;1.23;0.70;;;;;;;;;;4976123;28;20764;-69
2021/09/30 09:36:49;;;;;;;0.97;0.60;;;;;;;;;;4975912;28;20506;-69
2021/09/30 09:39:15;;;;;;;1.90;0.90;;;;;;;;;;4975983;28;20478;-68
2021/09/30 09:41:41;;;;;;;2.13;0.90;;;;;;;;;;4975455;28;20470;-69
2021/09/30 09:44:08;;;;;;;1.30;0.87;;;;;;;;;;4975597;28;20423;-67
2021/09/30 09:49:37;;;;;;;3.60;0.70;;;;;;;;;;4975496;28;20405;-69
2021/09/30 09:52:03;;;;;;;1.83;0.87;;;;;;;;;;4975312;28;20854;-69
2021/09/30 09:54:30;;;;;;;2.30;0.93;;;;;;;;;;4975228;28;20466;-68
2021/09/30 09:57:09;;;;;;;1.53;0.60;;;;;;;;;;4975301;28;20438;-69
2021/09/30 09:59:40;;;;;;;2.00;1.00;;;;;;;;;;4974960;28;20466;-68
2021/09/30 10:05:10;;;;;;;3.43;1.00;;;;;;;;;;4974975;28;20797;-68
2021/09/30 10:07:36;;;;;;;2.30;0.90;;;;;;;;;;4975112;28;20410;-68
2021/09/30 10:10:02;;;;;;;2.33;0.50;;;;;;;;;;4975114;28;20407;-67
2021/09/30 10:12:29;;;;;;;1.53;0.70;;;;;;;;;;4975147;28;20521;-68
2021/09/30 10:14:55;;;;;;;1.47;0.80;;;;;;;;;;4975116;28;20402;-69
2021/09/30 10:17:21;;;;;;;1.50;0.70;;;;;;;;;;4975287;28;20498;-69
2021/09/30 10:19:47;;;;;;;0.97;0.43;;;;;;;;;;4974793;28;21018;-67
2021/09/30 10:22:14;;;;;;;1.30;0.50;;;;;;;;;;4974962;28;20478;-69
2021/09/30 10:24:43;;;;;;;0.93;0.70;;;;;;;;;;4974572;28;20461;-68
2021/09/30 10:27:12;;;;;;;1.90;0.70;;;;;;;;;;4974878;28;20478;-69
2021/09/30 10:29:45;;;;;;;2.40;0.53;;;;;;;;;;4974935;28;20489;-68
2021/09/30 10:35:14;;;;;;;1.00;0.80;;;;;;;;;;4974361;28;20410;-68
2021/09/30 10:37:42;;;;;;;0.70;0.50;;;;;;;;;;4974689;28;20422;-68
2021/09/30 10:40:23;;;;;;;1.57;0.57;;;;;;;;;;4974635;28;20598;-68
2021/09/30 10:42:58;;;;;;;3.23;1.43;;;;;;;;;;4974854;28;20445;-69
2021/09/30 10:45:42;;;;;;;1.10;0.60;;;;;;;;;;4974529;28;20407;-68
2021/09/30 10:48:30;;;;;;;1.80;0.50;;;;;;;;;;4974427;28;20491;-68
2021/09/30 10:50:57;;;;;;;1.03;0.53;;;;;;;;;;4974474;28;20434;-67
2021/09/30 10:53:43;;;;;;;0.83;0.40;;;;;;;;;;4974356;28;20502;-67
2021/09/30 10:56:27;;;;;;;1.93;0.60;;;;;;;;;;4974638;28;20498;-69
2021/09/30 10:59:00;;;;;;;2.20;0.47;;;;;;;;;;4975057;28;20945;-67
2021/09/30 11:01:26;;;;;;;1.80;0.60;;;;;;;;;;4975065;28;20768;-68
2021/09/30 11:04:02;;;;;;;1.27;0.50;;;;;;;;;;4975204;28;20406;-68
2021/09/30 11:06:28;;;;;;;1.20;0.43;;;;;;;;;;4974207;28;20958;-68
2021/09/30 11:09:10;;;;;;;3.03;0.50;;;;;;;;;;4974839;28;20417;-67
2021/09/30 11:11:37;;;;;;;1.37;0.40;;;;;;;;;;4974353;28;20425;-69
2021/09/30 11:14:03;;;;;;;0.60;0.30;;;;;;;;;;4974540;28;20928;-69
2021/09/30 11:16:39;;;;;;;0.80;0.50;;;;;;;;;;4974532;28;20506;-68
2021/09/30 11:19:06;;;;;;;3.10;0.70;;;;;;;;;;4974408;28;20462;-68
2021/09/30 11:21:32;;;;;;;1.07;0.40;;;;;;;;;;4971109;28;20972;-69
2021/09/30 11:24:06;;;;;;;2.43;0.50;;;;;;;;;;4973970;28;20426;-67
2021/09/30 11:26:33;;;;;;;1.90;0.63;;;;;;;;;;4973801;28;20960;-68
2021/09/30 11:29:31;;;;;;;1.90;0.50;;;;;;;;;;4974213;28;20415;-69
2021/09/30 11:31:57;;;;;;;0.80;0.50;;;;;;;;;;4972825;28;20442;-68
2021/09/30 11:34:37;;;;;;;0.97;0.40;;;;;;;;;;4974235;28;20494;-68
2021/09/30 11:37:14;;;;;;;2.27;0.47;;;;;;;;;;4974392;28;20751;-67
2021/09/30 11:39:40;;;;;;;1.00;0.60;;;;;;;;;;4973955;28;20825;-67
2021/09/30 11:42:07;;;;;;;1.90;0.50;;;;;;;;;;4973665;28;20419;-68
2021/09/30 11:44:32;;;;;;;2.70;0.83;;;;;;;;;;4973797;28;20422;-67
2021/09/30 11:46:59;;;;;;;2.17;0.80;;;;;;;;;;4974197;28;20778;-67
2021/09/30 11:49:26;;;;;;;1.40;0.70;;;;;;;;;;4977785;28;20978;-67
2021/09/30 11:51:53;;;;;;;0.93;0.40;;;;;;;;;;4977650;28;20560;-71
2021/09/30 11:54:20;;;;;;;0.60;0.50;;;;;;;;;;4977463;28;20557;-69
2021/09/30 11:56:47;;;;;;;2.20;0.80;;;;;;;;;;4977464;28;20497;-67
2021/09/30 11:59:16;;;;;;;1.87;0.57;;;;;;;;;;4977457;28;21069;-68
2021/09/30 12:01:45;;;;;;;2.17;0.50;;;;;;;;;;4977779;28;20924;-74
2021/09/30 12:04:12;;;;;;;0.90;0.50;;;;;;;;;;4975071;28;20968;-69
2021/09/30 12:06:44;;;;;;;0.70;0.33;;;;;;;;;;4976272;28;20459;-70
2021/09/30 12:09:11;;;;;;;0.97;0.40;;;;;;;;;;4976279;28;20497;-68
2021/09/30 12:11:38;;;;;;;0.93;0.77;;;;;;;;;;4976113;28;20415;-68
2021/09/30 12:14:05;;;;;;;3.10;0.90;;;;;;;;;;4976119;28;20414;-68
2021/09/30 12:16:31;;;;;;;2.10;0.83;;;;;;;;;;4976110;28;20533;-68
2021/09/30 12:18:59;;;;;;;1.33;0.60;;;;;;;;;;4976075;28;20901;-71
2021/09/30 12:21:35;;;;;;;0.70;0.40;;;;;;;;;;4976011;28;20497;-69
2021/09/30 12:24:02;;;;;;;2.10;0.50;;;;;;;;;;4975901;28;20414;-68
2021/09/30 12:26:30;;;;;;;1.63;0.60;;;;;;;;;;4975666;28;20814;-69
2021/09/30 12:28:56;;;;;;;1.00;0.70;;;;;;;;;;4976264;28;20423;-73
2021/09/30 12:31:22;;;;;;;1.83;0.60;;;;;;;;;;4976245;28;20414;-73
2021/09/30 12:33:48;;;;;;;2.70;0.53;;;;;;;;;;4975742;28;20425;-74
2021/09/30 12:36:15;;;;;;;1.47;0.70;;;;;;;;;;4976077;28;20422;-75
2021/09/30 12:38:41;;;;;;;1.13;0.40;;;;;;;;;;4975745;28;20857;-70
2021/09/30 12:41:07;;;;;;;1.17;0.40;;;;;;;;;;4975632;28;20516;-68
2021/09/30 12:43:34;;;;;;;2.03;0.50;;;;;;;;;;4975730;28;20414;-68
2021/09/30 12:46:02;;;;;;;1.23;0.53;;;;;;;;;;4975389;28;20425;-69
2021/09/30 12:51:31;;;;;;;2.17;0.80;;;;;;;;;;4975339;28;20409;-69
2021/09/30 12:53:57;;;;;;;1.30;0.67;;;;;;;;;;4975270;28;20411;-70
2021/09/30 12:56:28;;;;;;;2.03;0.40;;;;;;;;;;4974294;28;20509;-69
2021/09/30 12:58:54;;;;;;;1.70;0.90;;;;;;;;;;4975174;28;20410;-69
2021/09/30 13:01:22;;;;;;;0.80;0.43;;;;;;;;;;4975487;28;20434;-69
2021/09/30 13:07:04;;;;;;;1.17;0.53;;;;;;;;;;4975423;28;20406;-72
2021/09/30 13:09:32;;;;;;;2.87;0.77;;;;;;;;;;4975239;28;20426;-70
2021/09/30 13:11:58;;;;;;;2.77;0.60;;;;;;;;;;4974005;28;20426;-70
2021/09/30 13:14:44;;;;;;;1.17;0.60;;;;;;;;;;4972461;28;20426;-69
2021/09/30 13:17:10;;;;;;;0.97;0.40;;;;;;;;;;4975106;28;20478;-70
2021/09/30 13:19:55;;;;;;;0.90;0.63;;;;;;;;;;4975079;28;20556;-73
2021/09/30 13:22:28;;;;;;;2.27;0.60;;;;;;;;;;4975351;28;20414;-72
2021/09/30 13:24:55;;;;;;;0.90;0.50;;;;;;;;;;4975259;28;20415;-73
2021/09/30 13:27:22;;;;;;;2.80;0.60;;;;;;;;;;4974817;28;20414;-68
2021/09/30 13:29:48;;;;;;;1.90;0.90;;;;;;;;;;4974947;28;20565;-69
2021/09/30 13:32:15;;;;;;;2.20;0.67;;;;;;;;;;4975111;28;20748;-69
2021/09/30 13:34:42;;;;;;;1.63;0.60;;;;;;;;;;4974920;28;20419;-69
2021/09/30 13:37:08;;;;;;;2.20;0.93;;;;;;;;;;4974666;28;20417;-72
2021/09/30 13:39:34;;;;;;;0.97;0.50;;;;;;;;;;4974717;28;20524;-73
2021/09/30 13:42:00;;;;;;;2.13;0.60;;;;;;;;;;4974461;28;20422;-73
2021/09/30 13:44:26;;;;;;;2.23;0.70;;;;;;;;;;4974577;28;20418;-70
2021/09/30 13:46:52;;;;;;;1.43;0.50;;;;;;;;;;4974034;28;20544;-69
2021/09/30 13:52:22;;;;;;;0.97;0.67;;;;;;;;;;4974109;28;20410;-69
2021/09/30 13:54:48;;;;;;;1.80;0.77;;;;;;;;;;4974172;28;20489;-73
2021/09/30 13:57:14;;;;;;;0.60;0.50;;;;;;;;;;4974205;28;20418;-71
2021/09/30 13:59:40;;;;;;;1.10;0.60;;;;;;;;;;4973962;28;20470;-72
2021/09/30 14:02:07;;;;;;;0.87;0.53;;;;;;;;;;4974416;28;20443;-70
2021/09/30 14:04:35;;;;;;;2.80;0.70;;;;;;;;;;4974163;28;20414;-72
2021/09/30 14:07:01;;;;;;;0.60;0.60;;;;;;;;;;4974230;28;20415;-72
2021/09/30 14:09:27;;;;;;;2.20;0.67;;;;;;;;;;4973819;28;20499;-69
2021/09/30 14:11:53;;;;;;;1.97;0.60;;;;;;;;;;4973624;28;20830;-68
2021/09/30 14:14:20;;;;;;;2.10;0.70;;;;;;;;;;4974072;28;20514;-70
2021/09/30 14:16:49;;;;;;;0.90;0.70;;;;;;;;;;4974001;28;20415;-71
2021/09/30 14:22:19;;;;;;;2.00;0.77;;;;;;;;;;4973850;28;20517;-68
2021/09/30 14:24:45;;;;;;;2.67;0.97;;;;;;;;;;4972903;28;20782;-70
2021/09/30 14:27:11;;;;;;;1.63;0.90;;;;;;;;;;4973676;28;20506;-71
2021/09/30 14:29:41;;;;;;;1.53;0.63;;;;;;;;;;4973717;28;20421;-69
2021/09/30 14:32:09;;;;;;;1.57;0.70;;;;;;;;;;4973963;28;20823;-69
2021/09/30 14:37:38;;;;;;;1.57;0.70;;;;;;;;;;4973582;28;20778;-69
2021/09/30 14:40:04;;;;;;;1.53;0.60;;;;;;;;;;4973623;28;20462;-71
2021/09/30 14:42:30;;;;;;;1.20;0.43;;;;;;;;;;4973296;28;20403;-72
2021/09/30 14:44:58;;;;;;;3.47;0.80;;;;;;;;;;4973523;28;20898;-71
2021/09/30 14:47:24;;;;;;;1.30;0.80;;;;;;;;;;4971555;28;20442;-68
2021/09/30 14:49:50;;;;;;;1.13;0.53;;;;;;;;;;4971481;28;20423;-68
2021/09/30 14:52:17;;;;;;;2.80;1.10;;;;;;;;;;4972496;28;20556;-72
2021/09/30 14:54:43;;;;;;;2.83;0.53;;;;;;;;;;4972448;28;20478;-69
2021/09/30 14:57:10;;;;;;;1.47;0.70;;;;;;;;;;4972095;28;20410;-70
2021/09/30 14:59:36;;;;;;;1.00;0.60;;;;;;;;;;4972729;28;20470;-70
2021/09/30 15:02:03;;;;;;;1.03;0.50;;;;;;;;;;4972520;28;20418;-71
2021/09/30 15:07:32;;;;;;;0.70;0.60;;;;;;;;;;4972217;28;20421;-70
2021/09/30 15:09:58;;;;;;;4.77;0.80;;;;;;;;;;4972386;28;20422;-72
2021/09/30 15:12:24;;;;;;;4.13;1.13;;;;;;;;;;4972473;28;20426;-68
2021/09/30 15:14:50;;;;;;;3.47;0.60;;;;;;;;;;4973442;28;20411;-69
2021/09/30 15:17:45;;;;;;;2.20;0.60;;;;;;;;;;4973361;28;20897;-69
2021/09/30 15:23:17;;;;;;;0.70;0.50;;;;;;;;;;4979852;28;20421;-69
2021/09/30 15:25:44;;;;;;;1.37;0.60;;;;;;;;;;4978471;28;20458;-68
2021/09/30 15:28:14;;;;;;;1.70;0.40;;;;;;;;;;4979808;28;20890;-69
2021/09/30 15:30:40;;;;;;;1.80;1.00;;;;;;;;;;4976187;28;20933;-69
2021/09/30 15:33:07;;;;;;;1.83;0.70;;;;;;;;;;4977508;28;20423;-69
2021/09/30 15:35:33;;;;;;;0.50;0.37;;;;;;;;;;4978712;28;20417;-70
2021/09/30 15:38:00;;;;;;;0.97;0.60;;;;;;;;;;4978535;28;20897;-68
2021/09/30 15:40:26;;;;;;;0.63;0.37;;;;;;;;;;4978251;28;20466;-67
2021/09/30 15:42:52;;;;;;;0.77;0.50;;;;;;;;;;4978009;28;20494;-70
2021/09/30 15:45:20;;;;;;;1.40;0.53;;;;;;;;;;4978460;28;20781;-68
2021/09/30 15:47:46;;;;;;;0.40;0.40;;;;;;;;;;4978426;28;20904;-69
2021/09/30 15:50:12;;;;;;;0.80;0.40;;;;;;;;;;4978423;28;20418;-70
2021/09/30 15:52:38;;;;;;;1.70;0.70;;;;;;;;;;4978360;28;20402;-69
2021/09/30 15:55:05;;;;;;;2.07;0.90;;;;;;;;;;4978542;28;20501;-70
2021/09/30 15:57:31;;;;;;;0.83;0.80;;;;;;;;;;4978359;28;20417;-68
2021/09/30 15:59:57;;;;;;;0.70;0.50;;;;;;;;;;4978239;28;20466;-69
2021/09/30 16:02:23;;;;;;;0.80;0.60;;;;;;;;;;4978372;28;20990;-69
2021/09/30 16:07:53;;;;;;;2.13;0.70;;;;;;;;;;4979072;28;20456;-69
2021/09/30 16:10:19;;;;;;;1.40;0.70;;;;;;;;;;4979184;28;20772;-68
2021/09/30 16:12:46;;;;;;;3.37;0.70;;;;;;;;;;4979399;28;20422;-68
2021/09/30 16:15:12;;;;;;;1.23;0.73;;;;;;;;;;4979305;28;20409;-69
2021/09/30 16:17:39;;;;;;;1.33;0.77;;;;;;;;;;4979171;28;20406;-68
2021/09/30 16:23:09;;;;;;;1.73;0.63;;;;;;;;;;4979200;28;20414;-68
2021/09/30 16:25:35;;;;;;;2.77;2.57;;;;;;;;;;4979557;28;20414;-68
2021/09/30 16:28:01;;;;;;;2.73;1.60;;;;;;;;;;4978901;28;20418;-69
2021/09/30 16:30:27;;;;;;;7.30;5.10;;;;;;;;;;4978970;28;20413;-69
2021/09/30 16:32:53;;;;;;;2.53;1.27;;;;;;;;;;4977614;28;20407;-69
2021/09/30 16:38:23;;;;;;;1.03;0.60;;;;;;;;;;4976095;28;20417;-68
2021/09/30 16:40:49;;;;;;;0.93;0.80;;;;;;;;;;4976184;28;20481;-69
2021/09/30 16:43:16;;;;;;;0.50;0.50;;;;;;;;;;4975955;28;20494;-69
2021/09/30 16:45:42;;;;;;;0.90;0.77;;;;;;;;;;4976246;28;20509;-68
2021/09/30 16:48:08;;;;;;;2.10;0.63;;;;;;;;;;4974671;28;20470;-68
2021/09/30 16:53:37;;;;;;;1.50;0.87;;;;;;;;;;4975873;28;20425;-68
2021/09/30 16:56:04;;;;;;;1.30;0.73;;;;;;;;;;4975502;28;20969;-69
2021/09/30 16:58:30;;;;;;;4.20;1.00;;;;;;;;;;4971419;28;20419;-67
2021/09/30 17:00:56;;;;;;;1.57;0.60;;;;;;;;;;4974522;28;20481;-68
2021/09/30 17:03:22;;;;;;;1.23;0.57;;;;;;;;;;4974834;28;20461;-69
2021/09/30 17:05:48;;;;;;;5.40;0.50;;;;;;;;;;4975215;28;20423;-69
2021/09/30 17:08:14;;;;;;;0.67;0.40;;;;;;;;;;4975339;28;20835;-69
2021/09/30 17:10:40;;;;;;;0.87;0.50;;;;;;;;;;4975060;28;20415;-68
2021/09/30 17:13:07;;;;;;;1.87;0.60;;;;;;;;;;4974983;28;20427;-68
2021/09/30 17:15:35;;;;;;;1.70;0.87;;;;;;;;;;4975154;28;20470;-69
2021/09/30 17:18:02;;;;;;;1.30;0.77;;;;;;;;;;4975030;28;20894;-68
2021/09/30 17:23:31;;;;;;;3.10;0.80;;;;;;;;;;4974736;28;20429;-70
2021/09/30 17:25:58;;;;;;;1.17;0.73;;;;;;;;;;4974913;28;20528;-68
2021/09/30 17:28:24;;;;;;;1.60;0.80;;;;;;;;;;4975277;28;20443;-68
2021/09/30 17:30:52;;;;;;;4.83;0.90;;;;;;;;;;4975115;28;20551;-69
2021/09/30 17:33:18;;;;;;;1.50;0.90;;;;;;;;;;4974540;28;20415;-67
2021/09/30 17:38:48;;;;;;;2.40;1.97;;;;;;;;;;4974644;28;20429;-68
2021/09/30 17:41:14;;;;;;;2.10;1.60;;;;;;;;;;4974808;28;20430;-71
2021/09/30 17:43:39;;;;;;;3.20;1.40;;;;;;;;;;4974558;28;20419;-69
2021/09/30 17:46:05;;;;;;;3.70;1.33;;;;;;;;;;4973629;28;20886;-69
2021/09/30 17:48:31;;;;;;;4.00;1.40;;;;;;;;;;4974062;28;20434;-69
2021/09/30 17:54:01;;;;;;;2.83;1.80;;;;;;;;;;4972703;28;20514;-68
2021/09/30 17:56:27;;;;;;;3.30;1.70;;;;;;;;;;4974334;28;20922;-68
2021/09/30 17:58:53;;;;;;;7.97;2.30;;;;;;;;;;4974354;28;20438;-68
2021/09/30 18:01:19;;;;;;;4.33;1.30;;;;;;;;;;4974387;28;20434;-68
2021/09/30 18:03:45;;;;;;;2.40;1.50;;;;;;;;;;4975083;28;20822;-72
2021/09/30 18:09:15;;;;;;;1.70;1.33;;;;;;;;;;4975204;28;20413;-68
2021/09/30 18:11:41;;;;;;;1.90;1.57;;;;;;;;;;4975003;28;20505;-67
2021/09/30 18:14:07;;;;;;;2.23;1.37;;;;;;;;;;4972733;28;20415;-70
2021/09/30 18:16:36;;;;;;;27.20;22.93;;;;;;;;;;4974849;28;20468;-67
2021/09/30 18:19:04;;;;;;;6.10;3.53;;;;;;;;;;4973805;28;20426;-69
2021/09/30 18:27:08;;;;;;;1.70;1.40;;;;;;;;;;4973610;28;20914;-67
2021/09/30 18:29:34;;;;;;;2.53;1.20;;;;;;;;;;4973688;28;20527;-68
2021/09/30 18:32:00;;;;;;;2.73;1.73;;;;;;;;;;4973596;28;20954;-68
2021/09/30 18:34:27;;;;;;;3.93;1.83;;;;;;;;;;4973579;28;20415;-67
2021/09/30 18:36:54;;;;;;;2.00;1.50;;;;;;;;;;4972375;28;20441;-69
2021/09/30 18:39:22;;;;;;;3.00;1.73;;;;;;;;;;4973528;28;20517;-69
2021/09/30 18:41:48;;;;;;;2.13;1.87;;;;;;;;;;4972419;28;20423;-67
2021/09/30 18:44:14;;;;;;;4.87;2.13;;;;;;;;;;4973456;28;20407;-68
2021/09/30 18:46:40;;;;;;;2.47;1.60;;;;;;;;;;4972984;28;20422;-68
2021/09/30 18:49:07;;;;;;;1.40;1.30;;;;;;;;;;4973437;28;20410;-68
2021/09/30 18:54:36;;;;;;;6.03;2.00;;;;;;;;;;4973068;28;20469;-68
2021/09/30 18:57:03;;;;;;;5.27;1.27;;;;;;;;;;4970786;28;20426;-69
2021/09/30 18:59:29;;;;;;;2.30;1.20;;;;;;;;;;4972324;28;20823;-69
2021/09/30 19:01:55;;;;;;;1.60;1.37;;;;;;;;;;4973200;28;20779;-69
2021/09/30 19:04:21;;;;;;;5.33;2.03;;;;;;;;;;4973137;28;20513;-68
2021/09/30 19:09:52;;;;;;;3.93;1.70;;;;;;;;;;4973077;28;20449;-68
2021/09/30 19:12:19;;;;;;;5.20;1.77;;;;;;;;;;4973036;28;20851;-68
2021/09/30 19:14:45;;;;;;;3.00;2.27;;;;;;;;;;4972597;28;20419;-68
2021/09/30 19:17:11;;;;;;;2.93;1.77;;;;;;;;;;4972647;28;20458;-68
2021/09/30 19:25:26;;;;;;;8.00;1.77;;;;;;;;;;4972563;28;20510;-69
2021/09/30 19:27:54;;;;;;;2.27;1.60;;;;;;;;;;4972410;28;20422;-68
2021/09/30 19:30:20;;;;;;;5.90;1.67;;;;;;;;;;4972719;28;20443;-69
2021/09/30 19:32:47;;;;;;;3.33;1.30;;;;;;;;;;4971990;28;20770;-69
2021/09/30 19:35:13;;;;;;;2.53;1.63;;;;;;;;;;4972358;28;20899;-67
2021/09/30 19:37:40;;;;;;;1.73;1.50;;;;;;;;;;4972623;28;20500;-69
2021/09/30 19:40:09;;;;;;;5.60;1.63;;;;;;;;;;4972776;28;20486;-69
2021/09/30 19:42:35;;;;;;;4.60;1.90;;;;;;;;;;4972487;28;20419;-68